Harrisonburg, Virginia
Current Conditions -  °F | °C
As of 8:55 AM on Wednesday 22 Oct 2014 (Local Time) from KVBW Reporting Station
Overcast Overcast  
Wind Chill: 11°   Ceiling: 2800
Heat Index: 11°   Visibility: 10mi
Dew Point:   Wind: 8mph
Humidity: 71%   Direction: 310°NW
Pressure: 30"   Gusts: NA
Location:  38.45°N, 78.87°W
Report Text: KVBW 221255Z AUTO 31007KT 10SM OVC028 11/06 A3000 RMK AO2 T01060055
Loading
Personal Weather Stations






























Interactive Weather Map
Tropical Storm Tracking
New forecast layout! Learn more

10-Day Weather Forecast

Advertisements
Track Severe Weather on mobile